createdAt,value
2023-02-09T00:01:29.360Z,-3.20
2023-02-09T00:03:59.069Z,-3.80
2023-02-09T00:06:29.819Z,-2.70
2023-02-09T00:08:58.536Z,-3.70
2023-02-09T00:11:49.379Z,-3.40
2023-02-09T00:14:21.218Z,-3.60
2023-02-09T00:16:50.478Z,-3.80
2023-02-09T00:19:18.838Z,-3.60
2023-02-09T00:21:47.072Z,-4.40
2023-02-09T00:24:15.030Z,-3.70
2023-02-09T00:26:43.297Z,-4.10
2023-02-09T00:29:10.556Z,-4.00
2023-02-09T00:31:38.692Z,-4.10
2023-02-09T00:34:06.127Z,-4.30
2023-02-09T00:36:34.047Z,-4.00
2023-02-09T00:39:01.562Z,-4.20
2023-02-09T00:41:47.578Z,-3.60
2023-02-09T00:44:15.115Z,-4.20
2023-02-09T00:46:42.618Z,-4.10
2023-02-09T00:49:09.591Z,-4.20
2023-02-09T00:51:36.995Z,-4.40
2023-02-09T00:54:04.534Z,-4.60
2023-02-09T00:56:31.990Z,-4.50
2023-02-09T00:59:00.197Z,-4.30
2023-02-09T01:01:27.572Z,-4.30
2023-02-09T01:03:54.893Z,-4.10
2023-02-09T01:06:22.463Z,-4.20
2023-02-09T01:08:50.955Z,-3.00
2023-02-09T01:11:18.752Z,-3.70
2023-02-09T01:13:46.414Z,-4.20
2023-02-09T01:16:16.704Z,-4.20
2023-02-09T01:18:44.195Z,-4.20
2023-02-09T01:21:17.132Z,-4.50
2023-02-09T01:26:13.543Z,-4.40
2023-02-09T01:28:40.664Z,-4.40
2023-02-09T01:31:22.976Z,-4.30
2023-02-09T01:33:51.609Z,-4.30
2023-02-09T01:38:50.075Z,-4.10
2023-02-09T01:41:17.978Z,-4.00
2023-02-09T01:44:17.186Z,-3.90
2023-02-09T01:46:47.346Z,-3.90
2023-02-09T01:49:26.358Z,-4.10
2023-02-09T01:52:27.754Z,-3.80
2023-02-09T01:55:03.048Z,-3.90
2023-02-09T01:57:35.981Z,-4.30
2023-02-09T02:00:11.072Z,-3.90
2023-02-09T02:02:47.818Z,-4.40
2023-02-09T02:05:15.818Z,-3.80
2023-02-09T02:08:11.328Z,-3.70
2023-02-09T02:10:38.488Z,-3.80
2023-02-09T02:13:05.925Z,-3.50
2023-02-09T02:15:57.096Z,-3.40
2023-02-09T02:18:50.851Z,-3.60
2023-02-09T02:21:43.951Z,-3.50
2023-02-09T02:24:40.385Z,-3.40
2023-02-09T02:27:16.696Z,-3.80
2023-02-09T02:30:16.260Z,-3.30
2023-02-09T02:33:20.859Z,-3.60
2023-02-09T02:36:06.196Z,-3.60
2023-02-09T02:38:45.002Z,-3.60
2023-02-09T02:42:01.079Z,-3.60
2023-02-09T02:44:31.147Z,-3.50
2023-02-09T02:47:05.745Z,-3.70
2023-02-09T02:49:41.604Z,-3.60
2023-02-09T02:52:11.251Z,-3.50
2023-02-09T02:54:46.712Z,-3.60
2023-02-09T02:57:18.901Z,-3.40
2023-02-09T02:59:52.120Z,-3.50
2023-02-09T03:02:33.793Z,-3.50
2023-02-09T03:05:04.343Z,-3.90
2023-02-09T03:07:32.872Z,-3.60
2023-02-09T03:10:02.697Z,-4.30
2023-02-09T03:13:01.700Z,-3.70
2023-02-09T03:16:00.631Z,-3.70
2023-02-09T03:18:41.164Z,-4.00
2023-02-09T03:21:32.972Z,-4.00
2023-02-09T03:24:48.443Z,-3.90
2023-02-09T03:27:26.468Z,-4.00
2023-02-09T03:29:58.999Z,-4.60
2023-02-09T03:32:27.067Z,-4.30
2023-02-09T03:34:55.544Z,-4.20
2023-02-09T03:37:25.751Z,-4.40
2023-02-09T03:42:20.696Z,-4.50
2023-02-09T03:44:48.071Z,-4.50
2023-02-09T03:47:15.107Z,-4.40
2023-02-09T03:49:42.747Z,-4.50
2023-02-09T03:52:13.129Z,-4.50
2023-02-09T03:54:40.932Z,-4.70
2023-02-09T03:57:09.024Z,-4.80
2023-02-09T03:59:39.787Z,-4.70
2023-02-09T04:02:08.655Z,-4.60
2023-02-09T04:04:36.883Z,-4.80
2023-02-09T04:07:04.292Z,-4.80
2023-02-09T04:09:31.704Z,-4.30
2023-02-09T04:11:58.708Z,-4.60
2023-02-09T04:14:26.095Z,-4.10
2023-02-09T04:16:53.054Z,-4.80
2023-02-09T04:19:20.521Z,-4.90
2023-02-09T04:21:47.572Z,-4.80
2023-02-09T04:24:15.464Z,-4.70
2023-02-09T04:26:42.493Z,-5.00
2023-02-09T04:29:09.816Z,-4.60
2023-02-09T04:31:36.933Z,-4.80
2023-02-09T04:34:06.480Z,-4.70
2023-02-09T04:36:33.556Z,-5.10
2023-02-09T04:39:00.971Z,-4.70
2023-02-09T04:41:27.986Z,-4.60
2023-02-09T04:43:55.301Z,-4.70
2023-02-09T04:46:22.393Z,-4.70
2023-02-09T04:48:49.745Z,-4.80
2023-02-09T04:51:16.779Z,-4.70
2023-02-09T04:53:44.244Z,-5.10
2023-02-09T04:56:15.266Z,-4.30
2023-02-09T04:59:01.947Z,-4.70
2023-02-09T05:01:29.939Z,-5.00
2023-02-09T05:03:59.395Z,-5.00
2023-02-09T05:06:26.446Z,-5.40
2023-02-09T05:08:53.775Z,-4.80
2023-02-09T05:11:20.760Z,-5.10
2023-02-09T05:13:48.519Z,-5.30
2023-02-09T05:16:17.812Z,-5.10
2023-02-09T05:21:14.349Z,-4.60
2023-02-09T05:23:42.233Z,-5.20
2023-02-09T05:26:09.396Z,-4.70
2023-02-09T05:28:36.962Z,-5.10
2023-02-09T05:31:04.174Z,-4.90
2023-02-09T05:33:31.571Z,-4.70
2023-02-09T05:35:58.618Z,-5.20
2023-02-09T05:38:26.059Z,-5.20
2023-02-09T05:40:53.067Z,-5.10
2023-02-09T05:43:20.333Z,-4.90
2023-02-09T05:45:47.466Z,-5.10
2023-02-09T05:50:42.338Z,-5.20
2023-02-09T05:53:09.866Z,-5.30
2023-02-09T05:55:37.040Z,-5.70
2023-02-09T05:58:04.765Z,-5.10
2023-02-09T06:00:31.935Z,-5.10
2023-02-09T06:02:59.332Z,-4.80
2023-02-09T06:05:27.198Z,-5.50
2023-02-09T06:07:54.630Z,-5.40
2023-02-09T06:10:21.987Z,-5.20
2023-02-09T06:12:49.653Z,-5.00
2023-02-09T06:15:16.953Z,-5.30
2023-02-09T06:17:44.289Z,-5.10
2023-02-09T06:20:12.027Z,-4.90
2023-02-09T06:22:39.347Z,-4.40
2023-02-09T06:25:06.730Z,-4.80
2023-02-09T06:27:34.326Z,-5.20
2023-02-09T06:30:01.359Z,-5.00
2023-02-09T06:32:28.731Z,-4.80
2023-02-09T06:34:55.877Z,-4.90
2023-02-09T06:37:23.199Z,-4.80
2023-02-09T06:39:50.210Z,-4.80
2023-02-09T06:44:44.966Z,-4.40
2023-02-09T06:47:13.411Z,-5.00
2023-02-09T06:49:40.390Z,-4.20
2023-02-09T06:52:07.944Z,-4.40
2023-02-09T06:54:34.909Z,-4.00
2023-02-09T06:57:02.213Z,-4.30
2023-02-09T06:59:29.243Z,-4.00
2023-02-09T07:01:56.569Z,-3.90
2023-02-09T07:04:23.558Z,-4.10
2023-02-09T07:06:53.266Z,-4.00
2023-02-09T07:09:20.334Z,-4.00
2023-02-09T07:11:47.604Z,-3.90
2023-02-09T07:14:14.602Z,-3.90
2023-02-09T07:16:41.873Z,-3.90
2023-02-09T07:19:08.817Z,-3.80
2023-02-09T07:21:36.165Z,-3.80
2023-02-09T07:26:30.972Z,-3.60
2023-02-09T07:28:58.309Z,-3.50
2023-02-09T07:31:27.285Z,-3.30
2023-02-09T07:33:55.201Z,-2.50
2023-02-09T07:36:23.385Z,-2.90
2023-02-09T07:38:50.691Z,-2.80
2023-02-09T07:41:21.161Z,-3.20
2023-02-09T07:43:48.532Z,-2.80
2023-02-09T07:46:18.296Z,-2.50
2023-02-09T07:48:45.794Z,-2.50
2023-02-09T07:51:17.496Z,-2.60
2023-02-09T07:53:48.144Z,-2.50
2023-02-09T07:56:18.695Z,-2.10
2023-02-09T07:58:45.633Z,-2.30
2023-02-09T08:01:13.866Z,-1.90
2023-02-09T08:03:43.039Z,-2.00
2023-02-09T08:06:41.063Z,-2.10
2023-02-09T08:09:11.240Z,-1.60
2023-02-09T08:11:51.407Z,-1.90
2023-02-09T08:14:51.132Z,-1.90
2023-02-09T08:17:21.784Z,-2.00
2023-02-09T08:20:06.965Z,-1.60
2023-02-09T08:22:38.560Z,-1.20
2023-02-09T08:25:08.963Z,-1.10
2023-02-09T08:27:39.817Z,-1.40
2023-02-09T08:30:07.372Z,-1.80
2023-02-09T08:32:35.066Z,-2.20
2023-02-09T08:35:02.196Z,-1.90
2023-02-09T08:37:32.342Z,-2.00
2023-02-09T08:39:59.515Z,-2.30
2023-02-09T08:42:26.999Z,-2.30
2023-02-09T08:44:55.859Z,-2.70
2023-02-09T08:47:23.200Z,-2.20
2023-02-09T08:49:52.178Z,-2.50
2023-02-09T08:52:19.874Z,-2.60
2023-02-09T08:54:47.043Z,-2.70
2023-02-09T08:57:14.362Z,-2.90
2023-02-09T08:59:41.380Z,-2.90
2023-02-09T09:02:08.799Z,-2.90
2023-02-09T09:04:35.979Z,-2.80
2023-02-09T09:07:03.354Z,-2.00
2023-02-09T09:09:30.379Z,-3.80
2023-02-09T09:11:58.016Z,-3.20
2023-02-09T09:16:56.668Z,-3.10
2023-02-09T09:19:24.054Z,-2.90
2023-02-09T09:21:51.787Z,-2.90
2023-02-09T09:24:18.874Z,-2.80
2023-02-09T09:26:46.252Z,-2.80
2023-02-09T09:29:13.408Z,-2.70
2023-02-09T09:31:41.795Z,-2.70
2023-02-09T09:34:08.873Z,-2.60
2023-02-09T09:36:36.446Z,-2.40
2023-02-09T09:39:03.902Z,-2.40
2023-02-09T09:41:36.914Z,-2.20
2023-02-09T09:44:15.385Z,-2.10
2023-02-09T09:46:49.755Z,-1.40
2023-02-09T09:49:25.038Z,-1.30
2023-02-09T09:52:18.156Z,0.30
2023-02-09T09:54:45.702Z,-0.10
2023-02-09T09:57:20.748Z,-0.20
2023-02-09T09:59:48.117Z,0.10
2023-02-09T10:02:34.860Z,0.30
2023-02-09T10:05:18.041Z,0.30
2023-02-09T10:08:16.177Z,0.70
2023-02-09T10:10:57.673Z,1.40
2023-02-09T10:13:39.858Z,2.20
2023-02-09T10:16:39.397Z,2.20
2023-02-09T10:19:26.086Z,2.00
2023-02-09T10:21:54.594Z,2.30
2023-02-09T10:24:33.170Z,2.50
2023-02-09T10:27:13.737Z,2.70
2023-02-09T10:29:41.567Z,2.90
2023-02-09T10:32:11.686Z,2.90
2023-02-09T10:34:40.862Z,3.00
2023-02-09T10:37:38.881Z,3.20
2023-02-09T10:40:18.327Z,3.10
2023-02-09T10:42:59.067Z,3.20
2023-02-09T10:45:42.137Z,3.10
2023-02-09T10:48:12.373Z,3.10
2023-02-09T10:51:01.325Z,3.10
2023-02-09T10:53:40.987Z,3.10
2023-02-09T10:56:22.679Z,2.80
2023-02-09T10:58:59.162Z,2.70
2023-02-09T11:01:39.102Z,2.60
2023-02-09T11:04:18.536Z,2.50
2023-02-09T11:06:56.932Z,2.50
2023-02-09T11:09:48.627Z,2.50
2023-02-09T11:12:22.762Z,2.50
2023-02-09T11:14:49.884Z,2.40
2023-02-09T11:17:45.680Z,2.50
2023-02-09T11:20:36.050Z,2.50
2023-02-09T11:23:35.986Z,2.20
2023-02-09T11:26:13.663Z,3.50
2023-02-09T11:29:17.819Z,2.50
2023-02-09T11:31:57.202Z,2.60
2023-02-09T11:34:56.639Z,2.40
2023-02-09T11:37:41.790Z,2.40
2023-02-09T11:40:24.830Z,2.40
2023-02-09T11:43:28.700Z,1.50
2023-02-09T11:45:59.749Z,2.40
2023-02-09T11:48:29.684Z,2.20
2023-02-09T11:51:03.204Z,2.20
2023-02-09T11:53:43.285Z,2.20
2023-02-09T11:56:16.577Z,2.20
2023-02-09T11:59:09.117Z,2.20
2023-02-09T12:01:55.301Z,2.60
2023-02-09T12:04:41.806Z,2.30
2023-02-09T12:07:16.547Z,2.60
2023-02-09T12:10:11.363Z,2.40
2023-02-09T12:12:49.120Z,2.60
2023-02-09T12:15:18.382Z,2.40
2023-02-09T12:17:57.524Z,2.40
2023-02-09T12:20:24.733Z,2.80
2023-02-09T12:23:31.706Z,2.50
2023-02-09T12:26:20.015Z,2.80
2023-02-09T12:29:22.091Z,2.90
2023-02-09T12:32:04.106Z,2.90
2023-02-09T12:34:49.741Z,2.60
2023-02-09T12:37:30.348Z,2.60
2023-02-09T12:40:07.108Z,2.70
2023-02-09T12:43:09.649Z,2.70
2023-02-09T12:45:43.350Z,2.90
2023-02-09T12:48:10.392Z,2.40
2023-02-09T12:50:44.174Z,2.60
2023-02-09T12:53:23.786Z,2.70
2023-02-09T12:56:24.080Z,2.40
2023-02-09T13:04:04.485Z,2.30
2023-02-09T13:06:37.284Z,2.50
2023-02-09T13:09:09.456Z,1.90
2023-02-09T13:12:14.651Z,2.20
2023-02-09T13:14:45.196Z,2.20
2023-02-09T13:17:52.439Z,1.90
2023-02-09T13:20:58.226Z,1.60
2023-02-09T13:23:49.920Z,1.60
2023-02-09T13:26:44.815Z,1.70
2023-02-09T13:29:21.287Z,1.50
2023-02-09T13:32:16.839Z,1.60
2023-02-09T13:34:56.189Z,1.60
2023-02-09T13:37:29.139Z,1.50
2023-02-09T13:40:00.865Z,1.60
2023-02-09T13:42:35.813Z,1.60
2023-02-09T13:45:05.889Z,1.60
2023-02-09T13:47:33.327Z,1.50
2023-02-09T13:50:02.280Z,1.50
2023-02-09T13:52:38.990Z,1.50
2023-02-09T13:55:18.138Z,1.50
2023-02-09T13:57:51.571Z,1.40
2023-02-09T14:00:43.978Z,1.50
2023-02-09T14:03:46.991Z,1.30
2023-02-09T14:06:34.119Z,1.30
2023-02-09T14:09:03.078Z,1.30
2023-02-09T14:11:43.367Z,1.10
2023-02-09T14:14:21.371Z,1.10
2023-02-09T14:17:22.930Z,1.40
2023-02-09T14:19:55.460Z,1.90
2023-02-09T14:22:39.524Z,1.60
2023-02-09T14:25:22.675Z,1.00
2023-02-09T14:27:50.653Z,1.80
2023-02-09T14:30:24.488Z,1.30
2023-02-09T14:32:55.341Z,1.20
2023-02-09T14:35:26.181Z,1.10
2023-02-09T14:37:56.164Z,0.80
2023-02-09T14:40:35.552Z,0.80
2023-02-09T14:43:08.770Z,1.00
2023-02-09T14:45:57.864Z,0.90
2023-02-09T14:48:27.854Z,1.30
2023-02-09T14:50:57.582Z,0.80
2023-02-09T14:53:28.097Z,0.10
2023-02-09T14:55:56.979Z,0.60
2023-02-09T14:58:27.384Z,0.80
2023-02-09T15:00:56.254Z,1.00
2023-02-09T15:03:24.301Z,0.90
2023-02-09T15:05:55.643Z,0.90
2023-02-09T15:08:25.690Z,0.30
2023-02-09T15:11:02.640Z,0.50
2023-02-09T15:13:31.284Z,0.20
2023-02-09T15:15:58.446Z,0.40
2023-02-09T15:18:27.189Z,0.20
2023-02-09T15:23:22.047Z,0.30
2023-02-09T15:25:49.322Z,0.20
2023-02-09T15:28:28.577Z,0.30
2023-02-09T15:30:59.796Z,-0.30
2023-02-09T15:33:29.969Z,-0.50
2023-02-09T15:35:59.526Z,-0.50
2023-02-09T15:38:27.809Z,-0.20
2023-02-09T15:41:14.445Z,-0.40
2023-02-09T15:44:00.183Z,0.20
2023-02-09T15:54:16.136Z,-0.30
2023-02-09T15:59:20.557Z,-0.20
2023-02-09T16:01:48.087Z,-0.60
2023-02-09T16:04:15.575Z,-0.40
2023-02-09T16:06:48.042Z,-0.20
2023-02-09T16:09:21.754Z,-0.60
2023-02-09T16:11:49.497Z,-0.40
2023-02-09T16:14:20.590Z,-0.70
2023-02-09T16:16:48.916Z,-0.80
2023-02-09T16:19:17.002Z,-0.60
2023-02-09T16:21:48.889Z,-0.40
2023-02-09T16:24:30.515Z,-0.80
2023-02-09T16:27:02.412Z,-0.60
2023-02-09T16:29:29.797Z,-0.80
2023-02-09T16:34:24.547Z,-0.60
2023-02-09T16:39:21.881Z,-0.60
2023-02-09T16:41:52.769Z,-0.50
2023-02-09T16:44:23.996Z,-0.60
2023-02-09T16:46:56.419Z,-0.70
2023-02-09T16:49:39.555Z,0.00
2023-02-09T16:52:21.610Z,-0.60
2023-02-09T16:54:52.444Z,-0.50
2023-02-09T16:57:23.090Z,-0.70
2023-02-09T16:59:51.597Z,-0.50
2023-02-09T17:02:31.307Z,-0.60
2023-02-09T17:04:59.762Z,-0.50
2023-02-09T17:07:39.766Z,-0.50
2023-02-09T17:10:18.070Z,-0.50
2023-02-09T17:12:45.867Z,-0.20
2023-02-09T17:15:28.794Z,-0.50
2023-02-09T17:18:02.295Z,-0.70
2023-02-09T17:20:36.887Z,-0.50
2023-02-09T17:23:04.698Z,-0.50
2023-02-09T17:25:32.512Z,-0.10
2023-02-09T17:28:00.046Z,-0.20
2023-02-09T17:30:27.431Z,-0.50
2023-02-09T17:33:00.558Z,-0.10
2023-02-09T17:38:24.606Z,-0.20
2023-02-09T17:40:53.296Z,-0.30
2023-02-09T17:43:20.922Z,-0.30
2023-02-09T17:45:50.920Z,-0.20
2023-02-09T17:48:19.546Z,-0.40
2023-02-09T17:50:50.686Z,0.00
2023-02-09T17:53:25.387Z,-0.40
2023-02-09T17:55:56.971Z,-0.30
2023-02-09T17:58:24.982Z,-0.30
2023-02-09T18:00:55.915Z,-0.40
2023-02-09T18:03:24.820Z,-0.30
2023-02-09T18:05:58.780Z,-0.30
2023-02-09T18:08:27.327Z,-0.20
2023-02-09T18:10:58.943Z,-0.40
2023-02-09T18:13:29.452Z,-0.40
2023-02-09T18:15:57.334Z,-0.40
2023-02-09T18:18:24.662Z,-0.40
2023-02-09T18:20:52.276Z,-0.40
2023-02-09T18:23:19.781Z,-0.40
2023-02-09T18:25:49.636Z,-0.40
2023-02-09T18:28:17.006Z,0.00
2023-02-09T18:30:45.330Z,-0.80
2023-02-09T18:33:17.829Z,-0.60
2023-02-09T18:35:45.664Z,-0.20
2023-02-09T18:38:16.046Z,-0.20
2023-02-09T18:40:43.468Z,-0.50
2023-02-09T18:43:12.194Z,1.00
2023-02-09T18:45:41.804Z,-0.20
2023-02-09T18:48:10.282Z,-0.30
2023-02-09T18:50:41.264Z,-0.30
2023-02-09T18:53:10.345Z,0.00
2023-02-09T18:55:38.113Z,0.00
2023-02-09T18:58:06.906Z,1.50
2023-02-09T19:00:34.215Z,-0.50
2023-02-09T19:03:02.970Z,-0.20
2023-02-09T19:05:32.690Z,-0.40
2023-02-09T19:08:00.283Z,-0.30
2023-02-09T19:10:29.547Z,-0.30
2023-02-09T19:12:56.823Z,-0.20
2023-02-09T19:15:25.885Z,-0.30
2023-02-09T19:17:55.735Z,-0.30
2023-02-09T19:20:26.592Z,-0.10
2023-02-09T19:22:58.355Z,0.00
2023-02-09T19:25:27.649Z,-0.60
2023-02-09T19:27:56.192Z,-0.50
2023-02-09T19:30:25.189Z,-0.80
2023-02-09T19:32:54.641Z,-1.00
2023-02-09T19:35:23.170Z,-0.60
2023-02-09T19:37:55.328Z,-0.70
2023-02-09T19:40:36.072Z,-0.50
2023-02-09T19:43:05.939Z,-0.50
2023-02-09T19:45:37.538Z,-0.60
2023-02-09T19:48:07.372Z,-0.70
2023-02-09T19:50:36.818Z,-0.40
2023-02-09T19:53:07.783Z,-1.00
2023-02-09T20:00:36.385Z,-0.70
2023-02-09T20:03:07.521Z,-0.80
2023-02-09T20:05:35.417Z,-1.20
2023-02-09T20:08:02.470Z,-0.60
2023-02-09T20:10:29.982Z,-1.20
2023-02-09T20:12:59.012Z,-0.70
2023-02-09T20:15:31.535Z,-0.90
2023-02-09T20:17:58.886Z,-0.60
2023-02-09T20:20:26.395Z,-0.60
2023-02-09T20:22:54.272Z,-0.60
2023-02-09T20:27:52.215Z,-0.50
2023-02-09T20:30:20.609Z,1.50
2023-02-09T20:32:47.725Z,-0.70
2023-02-09T20:35:18.470Z,-0.70
2023-02-09T20:37:45.631Z,-0.80
2023-02-09T20:40:13.396Z,-0.80
2023-02-09T20:42:59.310Z,-0.70
2023-02-09T20:45:45.549Z,-0.80
2023-02-09T20:48:16.054Z,-0.40
2023-02-09T20:53:16.413Z,-0.60
2023-02-09T20:55:43.977Z,-0.80
2023-02-09T20:58:13.570Z,-0.50
2023-02-09T21:00:45.050Z,-0.60
2023-02-09T21:03:13.956Z,-0.70
2023-02-09T21:05:42.130Z,-0.50
2023-02-09T21:08:09.655Z,-0.70
2023-02-09T21:10:38.679Z,-0.60
2023-02-09T21:13:07.561Z,-0.60
2023-02-09T21:15:39.734Z,-0.90
2023-02-09T21:18:07.280Z,-0.60
2023-02-09T21:20:35.435Z,-0.80
2023-02-09T21:23:02.744Z,-0.50
2023-02-09T21:25:30.475Z,-0.90
2023-02-09T21:27:59.793Z,-0.50
2023-02-09T21:30:29.121Z,-0.90
2023-02-09T21:37:54.689Z,-1.00
2023-02-09T21:40:23.169Z,-1.10
2023-02-09T21:42:50.865Z,-0.90
2023-02-09T21:45:20.205Z,-0.90
2023-02-09T21:47:47.608Z,-1.10
2023-02-09T21:50:15.167Z,-1.10
2023-02-09T21:52:46.422Z,-1.00
2023-02-09T21:55:16.080Z,-1.00
2023-02-09T21:57:43.444Z,-1.30
2023-02-09T22:00:12.094Z,-1.20
2023-02-09T22:02:39.735Z,-1.40
2023-02-09T22:05:08.354Z,-1.40
2023-02-09T22:07:36.290Z,-1.10
2023-02-09T22:10:05.324Z,-1.30
2023-02-09T22:12:34.369Z,-1.20
2023-02-09T22:15:03.027Z,-1.20
2023-02-09T22:17:35.864Z,-1.00
2023-02-09T22:20:04.111Z,-1.50
2023-02-09T22:24:59.387Z,-1.40
2023-02-09T22:27:26.777Z,-0.90
2023-02-09T22:29:54.123Z,-1.70
2023-02-09T22:32:21.218Z,-1.50
2023-02-09T22:34:48.593Z,-1.60
2023-02-09T22:37:15.592Z,-1.90
2023-02-09T22:47:09.598Z,-1.80
2023-02-09T22:49:37.700Z,-1.30
2023-02-09T22:52:05.045Z,-1.70
2023-02-09T22:54:34.884Z,-1.70
2023-02-09T22:57:01.966Z,-2.10
2023-02-09T22:59:29.574Z,-1.80
2023-02-09T23:01:59.371Z,-1.50
2023-02-09T23:04:26.747Z,-1.60
2023-02-09T23:06:54.037Z,-1.70
2023-02-09T23:09:21.396Z,-1.60
2023-02-09T23:11:48.557Z,-1.80
2023-02-09T23:14:16.042Z,-1.90
2023-02-09T23:16:44.346Z,-1.80
2023-02-09T23:19:17.775Z,-1.90
2023-02-09T23:21:47.361Z,-1.90
2023-02-09T23:24:17.974Z,-1.90
2023-02-09T23:29:15.304Z,-2.00
2023-02-09T23:31:43.210Z,-2.30
2023-02-09T23:34:15.762Z,-1.70
2023-02-09T23:39:16.918Z,-2.00
2023-02-09T23:41:44.351Z,-2.00
2023-02-09T23:44:12.127Z,-2.00
2023-02-09T23:46:39.279Z,-1.90
2023-02-09T23:49:06.836Z,-2.10
2023-02-09T23:51:38.104Z,-2.30
2023-02-09T23:54:07.389Z,-1.80
2023-02-09T23:56:37.200Z,-1.90
2023-02-09T23:59:08.565Z,-2.00
